Decoded Metar for KKLS (KELSO LONGVEIW in WA, USA) (IATA:KLS) | Meteo·Mobile Aviation Weather
aviador You're here:

KKLS Decoded Metar

KELSO LONGVEIW in WA, USA
Report Time2019-03-19 17:56:00
UTC Time2019-03-19 18:43:59
Flight Rules vfr VFR
WindCalm
Visibility9999 m
Phenomena:N/A
Clouds:N/A
Expected CloudBase > 6,400 ft AGL from Temp-Dew spread
CeilingNone
Temp17°C (ISA +2)
Dew Point01°C (34% RH)
AAT15.2°C
QNH1017 hPa
Density Alt213 ft
Elevation16 ft
Report Wrong Elevation
Raw Report
KKLS 191756Z AUTO 00000KT 10SM CLR 17/01 A3002 RMK AO2 SLP170
T01670011 10167 20017 56006=

Extra information for KKLS:More info

Metar Taf Metar & Taf Last 4 Metars F.Rules Stats Wind Profile Meteogram Temp Stats Airport Information Weather charts Add Link Nearby VenuesMetar ALERT Operation Metar Decoded Social comments

AIRNAV info for KKLS